sensor_id;sensor_type;location;lat;lon;timestamp;P1;durP1;ratioP1;P2;durP2;ratioP2
4963;SDS011;2497;47.410;9.740;2023-12-14T00:01:19;12.50;;;1.43;;
4963;SDS011;2497;47.410;9.740;2023-12-14T00:03:46;1.60;;;1.50;;
4963;SDS011;2497;47.410;9.740;2023-12-14T00:06:14;1.93;;;1.60;;
4963;SDS011;2497;47.410;9.740;2023-12-14T00:08:43;0.80;;;0.70;;
4963;SDS011;2497;47.410;9.740;2023-12-14T00:11:10;1.27;;;1.00;;
4963;SDS011;2497;47.410;9.740;2023-12-14T00:13:38;0.80;;;0.80;;
4963;SDS011;2497;47.410;9.740;2023-12-14T00:16:06;3.63;;;1.33;;
4963;SDS011;2497;47.410;9.740;2023-12-14T00:18:33;1.10;;;1.00;;
4963;SDS011;2497;47.410;9.740;2023-12-14T00:21:02;0.90;;;0.80;;
4963;SDS011;2497;47.410;9.740;2023-12-14T00:23:30;1.13;;;1.03;;
4963;SDS011;2497;47.410;9.740;2023-12-14T00:25:59;1.23;;;1.03;;
4963;SDS011;2497;47.410;9.740;2023-12-14T00:28:26;12.60;;;2.80;;
4963;SDS011;2497;47.410;9.740;2023-12-14T00:30:53;3.87;;;1.93;;
4963;SDS011;2497;47.410;9.740;2023-12-14T00:33:20;7.27;;;2.23;;
4963;SDS011;2497;47.410;9.740;2023-12-14T00:35:47;1.50;;;1.10;;
4963;SDS011;2497;47.410;9.740;2023-12-14T00:38:15;1.23;;;1.03;;
4963;SDS011;2497;47.410;9.740;2023-12-14T00:40:42;1.53;;;1.10;;
4963;SDS011;2497;47.410;9.740;2023-12-14T00:43:11;2.57;;;1.80;;
4963;SDS011;2497;47.410;9.740;2023-12-14T00:45:38;2.13;;;1.40;;
4963;SDS011;2497;47.410;9.740;2023-12-14T00:48:06;1.00;;;0.90;;
4963;SDS011;2497;47.410;9.740;2023-12-14T00:50:33;1.60;;;1.30;;
4963;SDS011;2497;47.410;9.740;2023-12-14T00:53:00;2.60;;;1.27;;
4963;SDS011;2497;47.410;9.740;2023-12-14T00:55:28;1.10;;;1.00;;
4963;SDS011;2497;47.410;9.740;2023-12-14T00:57:55;2.17;;;1.40;;
4963;SDS011;2497;47.410;9.740;2023-12-14T01:00:24;1.37;;;1.27;;
4963;SDS011;2497;47.410;9.740;2023-12-14T01:02:51;2.30;;;1.40;;
4963;SDS011;2497;47.410;9.740;2023-12-14T01:05:18;1.17;;;0.90;;
4963;SDS011;2497;47.410;9.740;2023-12-14T01:07:46;1.53;;;0.80;;
4963;SDS011;2497;47.410;9.740;2023-12-14T01:10:13;0.80;;;0.70;;
4963;SDS011;2497;47.410;9.740;2023-12-14T01:12:40;1.27;;;0.70;;
4963;SDS011;2497;47.410;9.740;2023-12-14T01:15:17;0.90;;;0.80;;
4963;SDS011;2497;47.410;9.740;2023-12-14T01:17:55;0.90;;;0.80;;
4963;SDS011;2497;47.410;9.740;2023-12-14T01:20:22;1.30;;;0.90;;
4963;SDS011;2497;47.410;9.740;2023-12-14T01:22:50;0.80;;;0.60;;
4963;SDS011;2497;47.410;9.740;2023-12-14T01:25:17;1.00;;;0.80;;
4963;SDS011;2497;47.410;9.740;2023-12-14T01:27:45;0.80;;;0.70;;
4963;SDS011;2497;47.410;9.740;2023-12-14T01:30:12;0.80;;;0.63;;
4963;SDS011;2497;47.410;9.740;2023-12-14T01:32:40;0.80;;;0.70;;
4963;SDS011;2497;47.410;9.740;2023-12-14T01:35:08;2.40;;;1.00;;
4963;SDS011;2497;47.410;9.740;2023-12-14T01:37:36;0.80;;;0.60;;
4963;SDS011;2497;47.410;9.740;2023-12-14T01:40:05;1.50;;;1.10;;
4963;SDS011;2497;47.410;9.740;2023-12-14T01:42:32;1.53;;;1.07;;
4963;SDS011;2497;47.410;9.740;2023-12-14T01:45:00;3.53;;;2.80;;
4963;SDS011;2497;47.410;9.740;2023-12-14T01:47:27;6.20;;;2.03;;
4963;SDS011;2497;47.410;9.740;2023-12-14T01:49:54;3.13;;;2.83;;
4963;SDS011;2497;47.410;9.740;2023-12-14T01:52:23;2.40;;;2.20;;
4963;SDS011;2497;47.410;9.740;2023-12-14T01:54:50;3.57;;;1.53;;
4963;SDS011;2497;47.410;9.740;2023-12-14T01:57:17;4.10;;;1.90;;
4963;SDS011;2497;47.410;9.740;2023-12-14T01:59:45;2.97;;;1.67;;
4963;SDS011;2497;47.410;9.740;2023-12-14T02:02:12;2.70;;;2.50;;
4963;SDS011;2497;47.410;9.740;2023-12-14T02:04:39;2.77;;;2.00;;
4963;SDS011;2497;47.410;9.740;2023-12-14T02:07:06;6.90;;;2.90;;
4963;SDS011;2497;47.410;9.740;2023-12-14T02:09:35;1.73;;;1.27;;
4963;SDS011;2497;47.410;9.740;2023-12-14T02:12:02;7.60;;;2.53;;
4963;SDS011;2497;47.410;9.740;2023-12-14T02:14:31;3.00;;;2.10;;
4963;SDS011;2497;47.410;9.740;2023-12-14T02:17:01;3.17;;;1.60;;
4963;SDS011;2497;47.410;9.740;2023-12-14T02:19:28;2.93;;;2.10;;
4963;SDS011;2497;47.410;9.740;2023-12-14T02:21:56;7.23;;;2.00;;
4963;SDS011;2497;47.410;9.740;2023-12-14T02:24:25;2.73;;;2.17;;
4963;SDS011;2497;47.410;9.740;2023-12-14T02:26:52;3.13;;;1.83;;
4963;SDS011;2497;47.410;9.740;2023-12-14T02:29:19;4.27;;;2.63;;
4963;SDS011;2497;47.410;9.740;2023-12-14T02:31:49;2.00;;;1.50;;
4963;SDS011;2497;47.410;9.740;2023-12-14T02:34:21;6.43;;;4.27;;
4963;SDS011;2497;47.410;9.740;2023-12-14T02:36:50;6.87;;;2.13;;
4963;SDS011;2497;47.410;9.740;2023-12-14T02:39:17;12.93;;;2.83;;
4963;SDS011;2497;47.410;9.740;2023-12-14T02:41:46;10.70;;;4.80;;
4963;SDS011;2497;47.410;9.740;2023-12-14T02:44:13;7.83;;;3.37;;
4963;SDS011;2497;47.410;9.740;2023-12-14T02:46:41;4.20;;;2.97;;
4963;SDS011;2497;47.410;9.740;2023-12-14T02:49:11;5.00;;;3.60;;
4963;SDS011;2497;47.410;9.740;2023-12-14T02:51:39;2.70;;;2.27;;
4963;SDS011;2497;47.410;9.740;2023-12-14T02:54:10;2.93;;;2.50;;
4963;SDS011;2497;47.410;9.740;2023-12-14T02:56:48;8.00;;;3.30;;
4963;SDS011;2497;47.410;9.740;2023-12-14T02:59:22;13.63;;;3.10;;
4963;SDS011;2497;47.410;9.740;2023-12-14T03:01:52;3.80;;;2.87;;
4963;SDS011;2497;47.410;9.740;2023-12-14T03:04:20;4.33;;;3.30;;
4963;SDS011;2497;47.410;9.740;2023-12-14T03:06:48;6.23;;;2.37;;
4963;SDS011;2497;47.410;9.740;2023-12-14T03:09:15;3.47;;;3.03;;
4963;SDS011;2497;47.410;9.740;2023-12-14T03:11:44;2.70;;;2.27;;
4963;SDS011;2497;47.410;9.740;2023-12-14T03:14:15;5.63;;;3.17;;
4963;SDS011;2497;47.410;9.740;2023-12-14T03:16:42;4.03;;;3.37;;
4963;SDS011;2497;47.410;9.740;2023-12-14T03:19:10;3.80;;;2.90;;
4963;SDS011;2497;47.410;9.740;2023-12-14T03:21:37;4.87;;;4.40;;
4963;SDS011;2497;47.410;9.740;2023-12-14T03:24:05;3.77;;;2.87;;
4963;SDS011;2497;47.410;9.740;2023-12-14T03:26:32;2.40;;;2.20;;
4963;SDS011;2497;47.410;9.740;2023-12-14T03:28:59;7.30;;;3.60;;
4963;SDS011;2497;47.410;9.740;2023-12-14T03:31:28;2.70;;;2.50;;
4963;SDS011;2497;47.410;9.740;2023-12-14T03:33:55;4.97;;;3.13;;
4963;SDS011;2497;47.410;9.740;2023-12-14T03:36:22;10.50;;;5.43;;
4963;SDS011;2497;47.410;9.740;2023-12-14T03:38:51;3.87;;;3.23;;
4963;SDS011;2497;47.410;9.740;2023-12-14T03:41:18;4.83;;;2.97;;
4963;SDS011;2497;47.410;9.740;2023-12-14T03:43:46;5.20;;;3.23;;
4963;SDS011;2497;47.410;9.740;2023-12-14T03:46:13;5.50;;;2.70;;
4963;SDS011;2497;47.410;9.740;2023-12-14T03:48:44;5.90;;;2.87;;
4963;SDS011;2497;47.410;9.740;2023-12-14T03:51:12;2.23;;;2.07;;
4963;SDS011;2497;47.410;9.740;2023-12-14T03:53:41;5.13;;;2.47;;
4963;SDS011;2497;47.410;9.740;2023-12-14T03:56:12;3.43;;;2.13;;
4963;SDS011;2497;47.410;9.740;2023-12-14T03:58:42;1.97;;;1.87;;
4963;SDS011;2497;47.410;9.740;2023-12-14T04:01:16;7.10;;;3.23;;
4963;SDS011;2497;47.410;9.740;2023-12-14T04:03:46;3.17;;;2.30;;
4963;SDS011;2497;47.410;9.740;2023-12-14T04:06:14;2.40;;;2.20;;
4963;SDS011;2497;47.410;9.740;2023-12-14T04:08:41;1.40;;;1.30;;
4963;SDS011;2497;47.410;9.740;2023-12-14T04:11:09;1.20;;;0.70;;
4963;SDS011;2497;47.410;9.740;2023-12-14T04:13:37;1.10;;;0.73;;
4963;SDS011;2497;47.410;9.740;2023-12-14T04:16:05;1.67;;;1.33;;
4963;SDS011;2497;47.410;9.740;2023-12-14T04:18:33;1.10;;;0.83;;
4963;SDS011;2497;47.410;9.740;2023-12-14T04:21:02;0.80;;;0.70;;
4963;SDS011;2497;47.410;9.740;2023-12-14T04:23:30;0.70;;;0.60;;
4963;SDS011;2497;47.410;9.740;2023-12-14T04:25:58;1.40;;;0.97;;
4963;SDS011;2497;47.410;9.740;2023-12-14T04:28:25;0.83;;;0.77;;
4963;SDS011;2497;47.410;9.740;2023-12-14T04:30:52;1.00;;;0.90;;
4963;SDS011;2497;47.410;9.740;2023-12-14T04:33:19;1.00;;;0.90;;
4963;SDS011;2497;47.410;9.740;2023-12-14T04:35:46;1.20;;;0.80;;
4963;SDS011;2497;47.410;9.740;2023-12-14T04:38:15;0.80;;;0.80;;
4963;SDS011;2497;47.410;9.740;2023-12-14T04:40:42;0.80;;;0.70;;
4963;SDS011;2497;47.410;9.740;2023-12-14T04:43:09;0.93;;;0.83;;
4963;SDS011;2497;47.410;9.740;2023-12-14T04:45:37;0.80;;;0.63;;
4963;SDS011;2497;47.410;9.740;2023-12-14T04:48:05;0.80;;;0.70;;
4963;SDS011;2497;47.410;9.740;2023-12-14T04:50:33;0.80;;;0.63;;
4963;SDS011;2497;47.410;9.740;2023-12-14T04:53:00;0.80;;;0.63;;
4963;SDS011;2497;47.410;9.740;2023-12-14T04:55:29;0.80;;;0.60;;
4963;SDS011;2497;47.410;9.740;2023-12-14T04:57:56;0.80;;;0.70;;
4963;SDS011;2497;47.410;9.740;2023-12-14T05:00:23;1.07;;;0.97;;
4963;SDS011;2497;47.410;9.740;2023-12-14T05:02:53;0.80;;;0.73;;
4963;SDS011;2497;47.410;9.740;2023-12-14T05:05:20;0.90;;;0.70;;
4963;SDS011;2497;47.410;9.740;2023-12-14T05:07:48;0.80;;;0.70;;
4963;SDS011;2497;47.410;9.740;2023-12-14T05:10:18;0.80;;;0.70;;
4963;SDS011;2497;47.410;9.740;2023-12-14T05:12:46;1.17;;;0.70;;
4963;SDS011;2497;47.410;9.740;2023-12-14T05:15:13;0.80;;;0.70;;
4963;SDS011;2497;47.410;9.740;2023-12-14T05:17:41;0.80;;;0.60;;
4963;SDS011;2497;47.410;9.740;2023-12-14T05:20:08;2.50;;;1.37;;
4963;SDS011;2497;47.410;9.740;2023-12-14T05:22:38;0.80;;;0.60;;
4963;SDS011;2497;47.410;9.740;2023-12-14T05:25:06;0.80;;;0.70;;
4963;SDS011;2497;47.410;9.740;2023-12-14T05:27:33;0.80;;;0.70;;
4963;SDS011;2497;47.410;9.740;2023-12-14T05:30:02;0.87;;;0.77;;
4963;SDS011;2497;47.410;9.740;2023-12-14T05:32:29;0.80;;;0.70;;
4963;SDS011;2497;47.410;9.740;2023-12-14T05:34:57;0.90;;;0.70;;
4963;SDS011;2497;47.410;9.740;2023-12-14T05:37:24;0.80;;;0.70;;
4963;SDS011;2497;47.410;9.740;2023-12-14T05:39:52;0.80;;;0.70;;
4963;SDS011;2497;47.410;9.740;2023-12-14T05:42:19;0.80;;;0.70;;
4963;SDS011;2497;47.410;9.740;2023-12-14T05:47:33;0.80;;;0.70;;
4963;SDS011;2497;47.410;9.740;2023-12-14T05:50:00;0.80;;;0.70;;
4963;SDS011;2497;47.410;9.740;2023-12-14T05:52:28;0.80;;;0.60;;
4963;SDS011;2497;47.410;9.740;2023-12-14T05:54:55;1.00;;;0.90;;
4963;SDS011;2497;47.410;9.740;2023-12-14T05:57:22;0.80;;;0.70;;
4963;SDS011;2497;47.410;9.740;2023-12-14T05:59:50;0.80;;;0.70;;
4963;SDS011;2497;47.410;9.740;2023-12-14T06:02:19;0.90;;;0.80;;
4963;SDS011;2497;47.410;9.740;2023-12-14T06:04:46;1.20;;;1.03;;
4963;SDS011;2497;47.410;9.740;2023-12-14T06:07:14;0.80;;;0.70;;
4963;SDS011;2497;47.410;9.740;2023-12-14T06:09:42;0.80;;;0.70;;
4963;SDS011;2497;47.410;9.740;2023-12-14T06:12:09;0.80;;;0.70;;
4963;SDS011;2497;47.410;9.740;2023-12-14T06:14:36;0.80;;;0.70;;
4963;SDS011;2497;47.410;9.740;2023-12-14T06:17:03;0.80;;;0.70;;
4963;SDS011;2497;47.410;9.740;2023-12-14T06:19:32;2.40;;;0.90;;
4963;SDS011;2497;47.410;9.740;2023-12-14T06:21:59;0.80;;;0.70;;
4963;SDS011;2497;47.410;9.740;2023-12-14T06:24:26;0.80;;;0.67;;
4963;SDS011;2497;47.410;9.740;2023-12-14T06:26:53;0.83;;;0.73;;
4963;SDS011;2497;47.410;9.740;2023-12-14T06:29:20;0.90;;;0.80;;
4963;SDS011;2497;47.410;9.740;2023-12-14T06:31:47;0.80;;;0.70;;
4963;SDS011;2497;47.410;9.740;2023-12-14T06:34:14;1.43;;;1.30;;
4963;SDS011;2497;47.410;9.740;2023-12-14T06:36:43;1.07;;;0.97;;
4963;SDS011;2497;47.410;9.740;2023-12-14T06:39:11;7.63;;;2.50;;
4963;SDS011;2497;47.410;9.740;2023-12-14T06:41:39;0.80;;;0.80;;
4963;SDS011;2497;47.410;9.740;2023-12-14T06:44:06;0.77;;;0.70;;
4963;SDS011;2497;47.410;9.740;2023-12-14T06:46:34;0.80;;;0.70;;
4963;SDS011;2497;47.410;9.740;2023-12-14T06:49:01;0.80;;;0.70;;
4963;SDS011;2497;47.410;9.740;2023-12-14T06:51:29;0.80;;;0.70;;
4963;SDS011;2497;47.410;9.740;2023-12-14T06:53:57;0.80;;;0.70;;
4963;SDS011;2497;47.410;9.740;2023-12-14T06:56:24;0.80;;;0.70;;
4963;SDS011;2497;47.410;9.740;2023-12-14T06:58:51;0.80;;;0.70;;
4963;SDS011;2497;47.410;9.740;2023-12-14T07:01:18;1.03;;;0.90;;
4963;SDS011;2497;47.410;9.740;2023-12-14T07:03:45;1.47;;;1.23;;
4963;SDS011;2497;47.410;9.740;2023-12-14T07:06:13;2.40;;;0.80;;
4963;SDS011;2497;47.410;9.740;2023-12-14T07:08:41;0.80;;;0.80;;
4963;SDS011;2497;47.410;9.740;2023-12-14T07:11:09;0.80;;;0.70;;
4963;SDS011;2497;47.410;9.740;2023-12-14T07:13:37;1.97;;;1.27;;
4963;SDS011;2497;47.410;9.740;2023-12-14T07:16:05;0.80;;;0.80;;
4963;SDS011;2497;47.410;9.740;2023-12-14T07:18:33;3.93;;;1.50;;
4963;SDS011;2497;47.410;9.740;2023-12-14T07:21:01;2.03;;;0.90;;
4963;SDS011;2497;47.410;9.740;2023-12-14T07:23:28;1.37;;;1.00;;
4963;SDS011;2497;47.410;9.740;2023-12-14T07:25:56;1.10;;;1.00;;
4963;SDS011;2497;47.410;9.740;2023-12-14T07:28:24;1.37;;;1.10;;
4963;SDS011;2497;47.410;9.740;2023-12-14T07:30:52;1.17;;;0.87;;
4963;SDS011;2497;47.410;9.740;2023-12-14T07:33:20;1.00;;;0.80;;
4963;SDS011;2497;47.410;9.740;2023-12-14T07:35:47;1.07;;;0.87;;
4963;SDS011;2497;47.410;9.740;2023-12-14T07:38:14;0.80;;;0.80;;
4963;SDS011;2497;47.410;9.740;2023-12-14T07:40:41;1.00;;;0.90;;
4963;SDS011;2497;47.410;9.740;2023-12-14T07:43:09;3.63;;;1.00;;
4963;SDS011;2497;47.410;9.740;2023-12-14T07:45:37;1.73;;;1.40;;
4963;SDS011;2497;47.410;9.740;2023-12-14T07:48:04;0.80;;;0.70;;
4963;SDS011;2497;47.410;9.740;2023-12-14T07:50:31;1.20;;;0.90;;
4963;SDS011;2497;47.410;9.740;2023-12-14T07:52:58;1.40;;;0.90;;
4963;SDS011;2497;47.410;9.740;2023-12-14T07:55:26;0.90;;;0.70;;
4963;SDS011;2497;47.410;9.740;2023-12-14T07:57:53;2.00;;;1.57;;
4963;SDS011;2497;47.410;9.740;2023-12-14T08:00:20;0.80;;;0.73;;
4963;SDS011;2497;47.410;9.740;2023-12-14T08:02:48;0.80;;;0.70;;
4963;SDS011;2497;47.410;9.740;2023-12-14T08:05:16;0.80;;;0.60;;
4963;SDS011;2497;47.410;9.740;2023-12-14T08:07:43;1.90;;;0.80;;
4963;SDS011;2497;47.410;9.740;2023-12-14T08:10:10;0.80;;;0.63;;
4963;SDS011;2497;47.410;9.740;2023-12-14T08:12:37;0.90;;;0.80;;
4963;SDS011;2497;47.410;9.740;2023-12-14T08:15:04;1.37;;;1.00;;
4963;SDS011;2497;47.410;9.740;2023-12-14T08:17:33;0.80;;;0.70;;
4963;SDS011;2497;47.410;9.740;2023-12-14T08:20:01;0.90;;;0.77;;
4963;SDS011;2497;47.410;9.740;2023-12-14T08:22:29;0.80;;;0.60;;
4963;SDS011;2497;47.410;9.740;2023-12-14T08:24:56;1.70;;;1.07;;
4963;SDS011;2497;47.410;9.740;2023-12-14T08:27:23;0.90;;;0.80;;
4963;SDS011;2497;47.410;9.740;2023-12-14T08:29:50;1.53;;;1.10;;
4963;SDS011;2497;47.410;9.740;2023-12-14T08:32:17;1.30;;;0.77;;
4963;SDS011;2497;47.410;9.740;2023-12-14T08:34:45;2.80;;;0.80;;
4963;SDS011;2497;47.410;9.740;2023-12-14T08:37:14;0.80;;;0.80;;
4963;SDS011;2497;47.410;9.740;2023-12-14T08:39:41;0.80;;;0.70;;
4963;SDS011;2497;47.410;9.740;2023-12-14T08:42:08;1.00;;;0.87;;
4963;SDS011;2497;47.410;9.740;2023-12-14T08:44:38;0.80;;;0.70;;
4963;SDS011;2497;47.410;9.740;2023-12-14T08:47:05;0.80;;;0.77;;
4963;SDS011;2497;47.410;9.740;2023-12-14T08:49:34;0.80;;;0.70;;
4963;SDS011;2497;47.410;9.740;2023-12-14T08:52:02;0.90;;;0.80;;
4963;SDS011;2497;47.410;9.740;2023-12-14T08:54:31;1.00;;;0.90;;
4963;SDS011;2497;47.410;9.740;2023-12-14T08:56:59;0.93;;;0.83;;
4963;SDS011;2497;47.410;9.740;2023-12-14T08:59:26;2.40;;;2.20;;
4963;SDS011;2497;47.410;9.740;2023-12-14T09:01:53;1.43;;;0.80;;
4963;SDS011;2497;47.410;9.740;2023-12-14T09:04:21;1.20;;;1.10;;
4963;SDS011;2497;47.410;9.740;2023-12-14T09:06:48;2.00;;;1.80;;
4963;SDS011;2497;47.410;9.740;2023-12-14T09:09:15;2.20;;;1.70;;
4963;SDS011;2497;47.410;9.740;2023-12-14T09:11:45;1.00;;;0.90;;
4963;SDS011;2497;47.410;9.740;2023-12-14T09:14:12;2.30;;;1.80;;
4963;SDS011;2497;47.410;9.740;2023-12-14T09:16:39;1.87;;;1.27;;
4963;SDS011;2497;47.410;9.740;2023-12-14T09:19:06;1.43;;;1.33;;
4963;SDS011;2497;47.410;9.740;2023-12-14T09:21:33;2.17;;;1.83;;
4963;SDS011;2497;47.410;9.740;2023-12-14T09:24:00;3.53;;;3.23;;
4963;SDS011;2497;47.410;9.740;2023-12-14T09:26:28;1.57;;;1.47;;
4963;SDS011;2497;47.410;9.740;2023-12-14T09:28:56;1.50;;;0.90;;
4963;SDS011;2497;47.410;9.740;2023-12-14T09:31:23;2.70;;;2.30;;
4963;SDS011;2497;47.410;9.740;2023-12-14T09:33:50;4.27;;;1.80;;
4963;SDS011;2497;47.410;9.740;2023-12-14T09:36:18;4.60;;;1.80;;
4963;SDS011;2497;47.410;9.740;2023-12-14T09:38:46;1.73;;;1.43;;
4963;SDS011;2497;47.410;9.740;2023-12-14T09:41:13;3.50;;;1.80;;
4963;SDS011;2497;47.410;9.740;2023-12-14T09:43:40;2.10;;;1.80;;
4963;SDS011;2497;47.410;9.740;2023-12-14T09:46:10;3.60;;;2.40;;
4963;SDS011;2497;47.410;9.740;2023-12-14T09:48:38;3.23;;;2.60;;
4963;SDS011;2497;47.410;9.740;2023-12-14T09:51:06;18.97;;;3.10;;
4963;SDS011;2497;47.410;9.740;2023-12-14T09:53:33;2.80;;;2.10;;
4963;SDS011;2497;47.410;9.740;2023-12-14T09:56:00;2.83;;;2.33;;
4963;SDS011;2497;47.410;9.740;2023-12-14T09:58:27;4.53;;;2.33;;
4963;SDS011;2497;47.410;9.740;2023-12-14T10:00:57;3.43;;;1.60;;
4963;SDS011;2497;47.410;9.740;2023-12-14T10:03:29;2.60;;;2.20;;
4963;SDS011;2497;47.410;9.740;2023-12-14T10:05:58;1.33;;;1.23;;
4963;SDS011;2497;47.410;9.740;2023-12-14T10:08:27;1.83;;;1.37;;
4963;SDS011;2497;47.410;9.740;2023-12-14T10:10:54;2.10;;;1.43;;
4963;SDS011;2497;47.410;9.740;2023-12-14T10:13:22;6.97;;;2.03;;
4963;SDS011;2497;47.410;9.740;2023-12-14T10:16:02;4.90;;;2.90;;
4963;SDS011;2497;47.410;9.740;2023-12-14T10:18:32;2.43;;;1.63;;
4963;SDS011;2497;47.410;9.740;2023-12-14T10:21:01;4.17;;;3.23;;
4963;SDS011;2497;47.410;9.740;2023-12-14T10:23:28;7.00;;;3.83;;
4963;SDS011;2497;47.410;9.740;2023-12-14T10:25:56;5.00;;;2.30;;
4963;SDS011;2497;47.410;9.740;2023-12-14T10:28:23;4.87;;;3.40;;
4963;SDS011;2497;47.410;9.740;2023-12-14T10:30:51;4.23;;;2.93;;
4963;SDS011;2497;47.410;9.740;2023-12-14T10:33:19;3.13;;;2.37;;
4963;SDS011;2497;47.410;9.740;2023-12-14T10:35:47;5.37;;;3.60;;
4963;SDS011;2497;47.410;9.740;2023-12-14T10:38:15;5.90;;;3.23;;
4963;SDS011;2497;47.410;9.740;2023-12-14T10:40:44;4.83;;;3.63;;
4963;SDS011;2497;47.410;9.740;2023-12-14T10:43:12;9.67;;;4.33;;
4963;SDS011;2497;47.410;9.740;2023-12-14T10:45:39;6.60;;;3.30;;
4963;SDS011;2497;47.410;9.740;2023-12-14T10:48:09;10.00;;;2.40;;
4963;SDS011;2497;47.410;9.740;2023-12-14T10:50:38;2.43;;;2.23;;
4963;SDS011;2497;47.410;9.740;2023-12-14T10:53:10;2.67;;;2.13;;
4963;SDS011;2497;47.410;9.740;2023-12-14T10:55:37;4.60;;;3.23;;
4963;SDS011;2497;47.410;9.740;2023-12-14T10:58:08;14.53;;;3.77;;
4963;SDS011;2497;47.410;9.740;2023-12-14T11:00:35;7.20;;;4.03;;
4963;SDS011;2497;47.410;9.740;2023-12-14T11:03:03;3.70;;;3.40;;
4963;SDS011;2497;47.410;9.740;2023-12-14T11:05:32;4.33;;;2.80;;
4963;SDS011;2497;47.410;9.740;2023-12-14T11:08:02;15.60;;;3.80;;
4963;SDS011;2497;47.410;9.740;2023-12-14T11:10:39;5.50;;;2.73;;
4963;SDS011;2497;47.410;9.740;2023-12-14T11:13:09;3.33;;;3.00;;
4963;SDS011;2497;47.410;9.740;2023-12-14T11:15:39;6.30;;;3.03;;
4963;SDS011;2497;47.410;9.740;2023-12-14T11:18:20;2.80;;;1.70;;
4963;SDS011;2497;47.410;9.740;2023-12-14T11:20:52;1.47;;;1.37;;
4963;SDS011;2497;47.410;9.740;2023-12-14T11:23:28;2.50;;;1.80;;
4963;SDS011;2497;47.410;9.740;2023-12-14T11:25:59;1.83;;;1.07;;
4963;SDS011;2497;47.410;9.740;2023-12-14T11:28:28;2.23;;;1.33;;
4963;SDS011;2497;47.410;9.740;2023-12-14T11:30:56;3.20;;;1.00;;
4963;SDS011;2497;47.410;9.740;2023-12-14T11:33:23;3.20;;;1.20;;
4963;SDS011;2497;47.410;9.740;2023-12-14T11:35:52;1.17;;;1.00;;
4963;SDS011;2497;47.410;9.740;2023-12-14T11:38:19;1.60;;;1.20;;
4963;SDS011;2497;47.410;9.740;2023-12-14T11:40:48;1.43;;;1.33;;
4963;SDS011;2497;47.410;9.740;2023-12-14T11:43:17;3.00;;;1.57;;
4963;SDS011;2497;47.410;9.740;2023-12-14T11:45:45;1.87;;;1.10;;
4963;SDS011;2497;47.410;9.740;2023-12-14T11:48:13;0.80;;;0.70;;
4963;SDS011;2497;47.410;9.740;2023-12-14T11:50:40;1.20;;;1.10;;
4963;SDS011;2497;47.410;9.740;2023-12-14T11:53:09;1.40;;;0.83;;
4963;SDS011;2497;47.410;9.740;2023-12-14T11:55:37;1.30;;;1.20;;
4963;SDS011;2497;47.410;9.740;2023-12-14T11:58:06;0.80;;;0.63;;
4963;SDS011;2497;47.410;9.740;2023-12-14T12:00:35;1.50;;;0.70;;
4963;SDS011;2497;47.410;9.740;2023-12-14T12:03:08;1.13;;;0.93;;
4963;SDS011;2497;47.410;9.740;2023-12-14T12:05:36;3.53;;;1.00;;
4963;SDS011;2497;47.410;9.740;2023-12-14T12:08:04;1.10;;;1.00;;
4963;SDS011;2497;47.410;9.740;2023-12-14T12:10:32;0.80;;;0.70;;
4963;SDS011;2497;47.410;9.740;2023-12-14T12:13:00;0.80;;;0.70;;
4963;SDS011;2497;47.410;9.740;2023-12-14T12:15:29;0.80;;;0.80;;
4963;SDS011;2497;47.410;9.740;2023-12-14T12:17:59;0.80;;;0.70;;
4963;SDS011;2497;47.410;9.740;2023-12-14T12:20:26;3.00;;;1.20;;
4963;SDS011;2497;47.410;9.740;2023-12-14T12:22:53;1.53;;;1.43;;
4963;SDS011;2497;47.410;9.740;2023-12-14T12:25:21;0.97;;;0.87;;
4963;SDS011;2497;47.410;9.740;2023-12-14T12:27:49;0.80;;;0.73;;
4963;SDS011;2497;47.410;9.740;2023-12-14T12:30:16;1.00;;;0.90;;
4963;SDS011;2497;47.410;9.740;2023-12-14T12:32:43;0.80;;;0.70;;
4963;SDS011;2497;47.410;9.740;2023-12-14T12:35:11;0.80;;;0.60;;
4963;SDS011;2497;47.410;9.740;2023-12-14T12:37:39;0.80;;;0.70;;
4963;SDS011;2497;47.410;9.740;2023-12-14T12:40:06;0.80;;;0.70;;
4963;SDS011;2497;47.410;9.740;2023-12-14T12:42:34;0.80;;;0.70;;
4963;SDS011;2497;47.410;9.740;2023-12-14T12:45:01;0.80;;;0.80;;
4963;SDS011;2497;47.410;9.740;2023-12-14T12:47:28;0.80;;;0.70;;
4963;SDS011;2497;47.410;9.740;2023-12-14T12:49:55;0.80;;;0.70;;
4963;SDS011;2497;47.410;9.740;2023-12-14T12:52:24;0.80;;;0.70;;
4963;SDS011;2497;47.410;9.740;2023-12-14T12:54:51;1.07;;;0.90;;
4963;SDS011;2497;47.410;9.740;2023-12-14T12:57:18;0.80;;;0.73;;
4963;SDS011;2497;47.410;9.740;2023-12-14T12:59:45;0.90;;;0.80;;
4963;SDS011;2497;47.410;9.740;2023-12-14T13:02:12;1.30;;;1.20;;
4963;SDS011;2497;47.410;9.740;2023-12-14T13:04:39;1.17;;;0.90;;
4963;SDS011;2497;47.410;9.740;2023-12-14T13:07:06;0.87;;;0.77;;
4963;SDS011;2497;47.410;9.740;2023-12-14T13:09:35;3.60;;;1.23;;
4963;SDS011;2497;47.410;9.740;2023-12-14T13:12:03;1.10;;;0.80;;
4963;SDS011;2497;47.410;9.740;2023-12-14T13:14:31;1.17;;;1.07;;
4963;SDS011;2497;47.410;9.740;2023-12-14T13:16:58;1.43;;;0.90;;
4963;SDS011;2497;47.410;9.740;2023-12-14T13:19:25;1.00;;;0.80;;
4963;SDS011;2497;47.410;9.740;2023-12-14T13:21:54;0.80;;;0.60;;
4963;SDS011;2497;47.410;9.740;2023-12-14T13:24:23;0.80;;;0.60;;
4963;SDS011;2497;47.410;9.740;2023-12-14T13:26:51;4.20;;;1.07;;
4963;SDS011;2497;47.410;9.740;2023-12-14T13:29:18;0.80;;;0.70;;
4963;SDS011;2497;47.410;9.740;2023-12-14T13:31:47;1.00;;;0.90;;
4963;SDS011;2497;47.410;9.740;2023-12-14T13:34:14;0.80;;;0.70;;
4963;SDS011;2497;47.410;9.740;2023-12-14T13:36:41;0.90;;;0.80;;
4963;SDS011;2497;47.410;9.740;2023-12-14T13:39:08;1.10;;;1.00;;
4963;SDS011;2497;47.410;9.740;2023-12-14T13:41:36;3.47;;;0.77;;
4963;SDS011;2497;47.410;9.740;2023-12-14T13:44:05;0.80;;;0.73;;
4963;SDS011;2497;47.410;9.740;2023-12-14T13:46:32;2.33;;;1.73;;
4963;SDS011;2497;47.410;9.740;2023-12-14T13:48:59;0.90;;;0.80;;
4963;SDS011;2497;47.410;9.740;2023-12-14T13:51:27;0.80;;;0.80;;
4963;SDS011;2497;47.410;9.740;2023-12-14T13:53:54;1.40;;;1.30;;
4963;SDS011;2497;47.410;9.740;2023-12-14T13:56:21;0.80;;;0.73;;
4963;SDS011;2497;47.410;9.740;2023-12-14T13:58:48;4.10;;;2.07;;
4963;SDS011;2497;47.410;9.740;2023-12-14T14:01:17;1.20;;;0.90;;
4963;SDS011;2497;47.410;9.740;2023-12-14T14:03:44;1.43;;;1.20;;
4963;SDS011;2497;47.410;9.740;2023-12-14T14:06:12;1.53;;;0.80;;
4963;SDS011;2497;47.410;9.740;2023-12-14T14:08:40;0.80;;;0.73;;
4963;SDS011;2497;47.410;9.740;2023-12-14T14:11:07;1.00;;;0.90;;
4963;SDS011;2497;47.410;9.740;2023-12-14T14:13:34;1.63;;;0.90;;
4963;SDS011;2497;47.410;9.740;2023-12-14T14:16:01;2.60;;;2.30;;
4963;SDS011;2497;47.410;9.740;2023-12-14T14:18:31;1.00;;;0.90;;
4963;SDS011;2497;47.410;9.740;2023-12-14T14:20:58;4.03;;;1.00;;
4963;SDS011;2497;47.410;9.740;2023-12-14T14:23:26;1.47;;;1.27;;
4963;SDS011;2497;47.410;9.740;2023-12-14T14:25:53;0.80;;;0.80;;
4963;SDS011;2497;47.410;9.740;2023-12-14T14:28:20;1.00;;;0.90;;
4963;SDS011;2497;47.410;9.740;2023-12-14T14:30:48;1.07;;;0.97;;
4963;SDS011;2497;47.410;9.740;2023-12-14T14:33:15;0.80;;;0.70;;
4963;SDS011;2497;47.410;9.740;2023-12-14T14:35:45;0.80;;;0.70;;
4963;SDS011;2497;47.410;9.740;2023-12-14T14:38:12;0.80;;;0.70;;
4963;SDS011;2497;47.410;9.740;2023-12-14T14:40:39;0.80;;;0.70;;
4963;SDS011;2497;47.410;9.740;2023-12-14T14:43:08;2.60;;;1.50;;
4963;SDS011;2497;47.410;9.740;2023-12-14T14:45:36;1.23;;;0.90;;
4963;SDS011;2497;47.410;9.740;2023-12-14T14:48:03;1.03;;;0.93;;
4963;SDS011;2497;47.410;9.740;2023-12-14T14:50:33;1.20;;;1.10;;
4963;SDS011;2497;47.410;9.740;2023-12-14T14:53:02;0.80;;;0.70;;
4963;SDS011;2497;47.410;9.740;2023-12-14T14:55:29;0.97;;;0.90;;
4963;SDS011;2497;47.410;9.740;2023-12-14T14:57:56;0.90;;;0.80;;
4963;SDS011;2497;47.410;9.740;2023-12-14T15:00:23;0.90;;;0.80;;
4963;SDS011;2497;47.410;9.740;2023-12-14T15:02:53;0.80;;;0.70;;
4963;SDS011;2497;47.410;9.740;2023-12-14T15:05:20;0.80;;;0.73;;
4963;SDS011;2497;47.410;9.740;2023-12-14T15:07:48;1.43;;;0.90;;
4963;SDS011;2497;47.410;9.740;2023-12-14T15:10:16;1.63;;;1.10;;
4963;SDS011;2497;47.410;9.740;2023-12-14T15:12:43;1.43;;;1.33;;
4963;SDS011;2497;47.410;9.740;2023-12-14T15:15:10;0.90;;;0.70;;
4963;SDS011;2497;47.410;9.740;2023-12-14T15:17:37;0.90;;;0.80;;
4963;SDS011;2497;47.410;9.740;2023-12-14T15:20:05;1.17;;;0.97;;
4963;SDS011;2497;47.410;9.740;2023-12-14T15:22:33;2.20;;;1.00;;